createdAt,value
2018-08-07T00:00:01.068Z,28.10
2018-08-07T00:02:31.829Z,28.05
2018-08-07T00:05:02.091Z,28.01
2018-08-07T00:07:32.256Z,27.97
2018-08-07T00:10:03.040Z,27.94
2018-08-07T00:12:33.105Z,27.92
2018-08-07T00:15:03.754Z,27.89
2018-08-07T00:17:33.968Z,27.88
2018-08-07T00:20:04.163Z,27.86
2018-08-07T00:22:34.302Z,27.84
2018-08-07T00:25:05.140Z,27.82
2018-08-07T00:27:35.758Z,27.77
2018-08-07T00:30:07.118Z,27.75
2018-08-07T00:32:37.732Z,27.74
2018-08-07T00:35:10.132Z,27.70
2018-08-07T00:37:40.348Z,27.67
2018-08-07T00:40:13.458Z,27.65
2018-08-07T00:42:44.648Z,27.61
2018-08-07T00:45:19.044Z,27.54
2018-08-07T00:47:49.385Z,27.50
2018-08-07T00:50:20.960Z,27.46
2018-08-07T00:52:52.001Z,27.37
2018-08-07T00:55:22.396Z,27.29
2018-08-07T00:57:52.694Z,27.24
2018-08-07T01:00:22.758Z,27.15
2018-08-07T01:02:52.792Z,27.07
2018-08-07T01:05:22.851Z,27.05
2018-08-07T01:07:53.297Z,27.01
2018-08-07T01:10:24.047Z,26.96
2018-08-07T01:12:54.563Z,26.90
2018-08-07T01:15:24.835Z,26.84
2018-08-07T01:17:55.200Z,26.80
2018-08-07T01:20:25.482Z,26.79
2018-08-07T01:22:55.803Z,26.79
2018-08-07T01:25:26.522Z,26.80
2018-08-07T01:27:56.749Z,26.81
2018-08-07T01:30:28.766Z,26.81
2018-08-07T01:32:59.154Z,26.82
2018-08-07T01:35:31.094Z,26.83
2018-08-07T01:38:01.875Z,26.82
2018-08-07T01:40:32.488Z,26.77
2018-08-07T01:43:02.919Z,26.74
2018-08-07T01:45:32.965Z,26.72
2018-08-07T01:48:03.917Z,26.71
2018-08-07T01:50:33.981Z,26.71
2018-08-07T01:53:04.250Z,26.72
2018-08-07T01:55:34.598Z,26.72
2018-08-07T01:58:04.901Z,26.72
2018-08-07T02:00:35.612Z,26.72
2018-08-07T02:03:06.255Z,26.72
2018-08-07T02:05:36.315Z,26.72
2018-08-07T02:08:06.534Z,26.72
2018-08-07T02:10:36.725Z,26.72
2018-08-07T02:13:07.138Z,26.71
2018-08-07T02:15:37.342Z,26.71
2018-08-07T02:18:07.611Z,26.70
2018-08-07T02:20:37.741Z,26.67
2018-08-07T02:23:08.019Z,26.67
2018-08-07T02:25:38.255Z,26.61
2018-08-07T02:28:08.395Z,26.60
2018-08-07T02:30:38.674Z,26.60
2018-08-07T02:33:08.905Z,26.59
2018-08-07T02:35:40.189Z,26.59
2018-08-07T02:38:10.410Z,26.57
2018-08-07T02:40:40.574Z,26.57
2018-08-07T02:43:10.682Z,26.56
2018-08-07T02:45:41.126Z,26.56
2018-08-07T02:48:10.954Z,26.55
2018-08-07T02:50:41.163Z,26.56
2018-08-07T02:53:11.315Z,26.53
2018-08-07T02:55:41.448Z,26.50
2018-08-07T02:58:11.670Z,26.50
2018-08-07T03:00:43.656Z,26.49
2018-08-07T03:03:14.130Z,26.49
2018-08-07T03:05:44.342Z,26.48
2018-08-07T03:08:14.850Z,26.49
2018-08-07T03:10:45.175Z,26.49
2018-08-07T03:13:15.457Z,26.49
2018-08-07T03:15:45.269Z,26.48
2018-08-07T03:18:15.786Z,26.46
2018-08-07T03:20:45.724Z,26.44
2018-08-07T03:23:16.251Z,26.42
2018-08-07T03:25:46.334Z,26.38
2018-08-07T03:28:16.781Z,26.34
2018-08-07T03:30:46.977Z,26.34
2018-08-07T03:33:17.961Z,26.32
2018-08-07T03:35:48.186Z,26.31
2018-08-07T03:38:19.038Z,26.28
2018-08-07T03:40:49.508Z,26.25
2018-08-07T03:43:19.669Z,26.20
2018-08-07T03:45:50.878Z,26.18
2018-08-07T03:48:21.111Z,26.14
2018-08-07T03:50:52.129Z,26.12
2018-08-07T03:53:22.259Z,26.11
2018-08-07T03:55:52.687Z,26.11
2018-08-07T03:58:23.463Z,26.10
2018-08-07T04:00:54.962Z,26.10
2018-08-07T04:03:25.118Z,26.09
2018-08-07T04:05:56.019Z,26.09
2018-08-07T04:08:26.525Z,26.10
2018-08-07T04:10:56.721Z,26.13
2018-08-07T04:13:27.059Z,26.17
2018-08-07T04:15:57.229Z,26.18
2018-08-07T04:18:28.354Z,26.20
2018-08-07T04:20:58.635Z,26.20
2018-08-07T04:23:29.017Z,26.19
2018-08-07T04:25:59.597Z,26.20
2018-08-07T04:28:29.849Z,26.20
2018-08-07T04:30:59.986Z,26.22
2018-08-07T04:33:43.970Z,26.27
2018-08-07T04:36:14.103Z,26.31
2018-08-07T04:38:44.722Z,26.36
2018-08-07T04:41:15.150Z,26.40
2018-08-07T04:43:45.347Z,26.44
2018-08-07T04:46:15.782Z,26.48
2018-08-07T04:48:46.240Z,26.51
2018-08-07T04:51:16.516Z,26.53
2018-08-07T04:53:46.806Z,26.52
2018-08-07T04:56:16.863Z,26.53
2018-08-07T04:58:47.011Z,26.53
2018-08-07T05:01:17.225Z,26.53
2018-08-07T05:03:47.820Z,26.52
2018-08-07T05:06:17.977Z,26.52
2018-08-07T05:08:48.189Z,26.53
2018-08-07T05:11:18.290Z,26.52
2018-08-07T05:13:48.603Z,26.54
2018-08-07T05:16:18.675Z,26.52
2018-08-07T05:18:48.804Z,26.55
2018-08-07T05:21:18.866Z,26.57
2018-08-07T05:23:49.187Z,26.60
2018-08-07T05:26:19.354Z,26.61
2018-08-07T05:28:49.554Z,26.61
2018-08-07T05:31:19.885Z,26.62
2018-08-07T05:33:50.206Z,26.62
2018-08-07T05:36:21.100Z,26.65
2018-08-07T05:38:51.362Z,26.68
2018-08-07T05:41:21.425Z,26.71
2018-08-07T05:43:51.479Z,26.74
2018-08-07T05:46:22.458Z,26.80
2018-08-07T05:48:53.187Z,26.84
2018-08-07T05:51:23.554Z,26.86
2018-08-07T05:53:54.038Z,26.89
2018-08-07T05:56:24.278Z,26.93
2018-08-07T05:58:54.606Z,26.95
2018-08-07T06:01:24.891Z,26.99
2018-08-07T06:03:55.483Z,27.02
2018-08-07T06:06:25.815Z,27.03
2018-08-07T06:08:56.355Z,27.04
2018-08-07T06:11:26.955Z,27.06
2018-08-07T06:13:57.486Z,27.10
2018-08-07T06:16:27.835Z,27.13
2018-08-07T06:18:58.221Z,27.18
2018-08-07T06:21:28.630Z,27.20
2018-08-07T06:23:58.824Z,27.21
2018-08-07T06:26:28.869Z,27.22
2018-08-07T06:28:58.902Z,27.23
2018-08-07T06:31:29.010Z,27.23
2018-08-07T06:33:59.806Z,27.23
2018-08-07T06:36:30.395Z,27.25
2018-08-07T06:39:00.622Z,27.31
2018-08-07T06:41:30.825Z,27.36
2018-08-07T06:44:01.149Z,27.38
2018-08-07T06:46:31.473Z,27.41
2018-08-07T06:49:01.645Z,27.41
2018-08-07T06:51:31.835Z,27.43
2018-08-07T06:57:02.321Z,27.45
2018-08-07T06:59:32.846Z,27.47
2018-08-07T07:02:03.053Z,27.51
2018-08-07T07:04:33.368Z,27.51
2018-08-07T07:07:03.619Z,27.50
2018-08-07T07:09:33.862Z,27.52
2018-08-07T07:12:05.152Z,27.56
2018-08-07T07:14:35.512Z,27.57
2018-08-07T07:17:05.728Z,27.60
2018-08-07T07:19:35.842Z,27.64
2018-08-07T07:22:06.203Z,27.68
2018-08-07T07:24:36.395Z,27.70
2018-08-07T07:27:06.839Z,27.72
2018-08-07T07:29:37.142Z,27.73
2018-08-07T07:32:07.430Z,27.74
2018-08-07T07:34:37.716Z,27.79
2018-08-07T07:37:07.974Z,27.81
2018-08-07T07:39:38.244Z,27.84
2018-08-07T07:42:08.345Z,27.89
2018-08-07T07:44:38.490Z,27.94
2018-08-07T07:47:09.300Z,27.97
2018-08-07T07:49:39.531Z,27.98
2018-08-07T07:52:10.209Z,27.99
2018-08-07T07:54:40.341Z,28.01
2018-08-07T07:57:10.865Z,28.05
2018-08-07T07:59:40.990Z,28.08
2018-08-07T08:02:11.004Z,28.12
2018-08-07T08:04:41.322Z,28.17
2018-08-07T08:07:11.731Z,28.22
2018-08-07T08:09:41.901Z,28.28
2018-08-07T08:12:12.050Z,28.33
2018-08-07T08:14:42.165Z,28.36
2018-08-07T08:17:12.573Z,28.40
2018-08-07T08:19:42.859Z,28.44
2018-08-07T08:22:13.243Z,28.47
2018-08-07T08:24:43.942Z,28.53
2018-08-07T08:27:14.179Z,28.57
2018-08-07T08:29:44.364Z,28.62
2018-08-07T08:32:14.976Z,28.67
2018-08-07T08:34:45.764Z,28.70
2018-08-07T08:37:16.613Z,28.75
2018-08-07T08:39:46.860Z,28.80
2018-08-07T08:42:16.976Z,28.86
2018-08-07T08:44:47.378Z,28.92
2018-08-07T08:47:17.652Z,28.98
2018-08-07T08:49:48.273Z,29.04
2018-08-07T08:52:18.479Z,29.11
2018-08-07T08:54:48.874Z,29.18
2018-08-07T08:57:19.235Z,29.26
2018-08-07T08:59:49.663Z,29.33
2018-08-07T09:02:20.506Z,29.40
2018-08-07T09:04:51.239Z,29.46
2018-08-07T09:07:21.584Z,29.51
2018-08-07T09:09:51.572Z,29.55
2018-08-07T09:12:22.122Z,29.62
2018-08-07T09:14:52.482Z,29.70
2018-08-07T09:17:22.722Z,29.78
2018-08-07T09:19:52.850Z,29.85
2018-08-07T09:22:23.428Z,29.89
2018-08-07T09:24:53.633Z,29.95
2018-08-07T09:27:23.751Z,30.02
2018-08-07T09:29:55.677Z,30.08
2018-08-07T09:32:26.003Z,30.15
2018-08-07T09:34:56.284Z,30.22
2018-08-07T09:37:26.473Z,30.29
2018-08-07T09:39:57.852Z,30.38
2018-08-07T09:42:28.004Z,30.45
2018-08-07T09:44:58.148Z,30.54
2018-08-07T09:47:29.588Z,30.62
2018-08-07T09:50:00.048Z,30.70
2018-08-07T09:52:30.285Z,30.75
2018-08-07T09:55:01.263Z,30.84
2018-08-07T09:57:31.664Z,30.91
2018-08-07T10:00:02.140Z,31.00
2018-08-07T10:02:40.075Z,31.07
2018-08-07T10:05:10.295Z,31.12
2018-08-07T10:07:41.214Z,31.20
2018-08-07T10:10:11.772Z,31.26
2018-08-07T10:12:42.178Z,31.32
2018-08-07T10:15:12.696Z,31.39
2018-08-07T10:17:43.124Z,31.47
2018-08-07T10:20:13.781Z,31.51
2018-08-07T10:22:44.187Z,31.58
2018-08-07T10:25:16.479Z,31.66
2018-08-07T10:27:47.656Z,31.74
2018-08-07T10:30:21.299Z,31.79
2018-08-07T10:32:51.852Z,31.84
2018-08-07T10:35:22.011Z,31.89
2018-08-07T10:37:52.312Z,31.96
2018-08-07T10:40:23.962Z,32.02
2018-08-07T10:42:54.100Z,32.06
2018-08-07T10:45:25.368Z,32.13
2018-08-07T10:47:55.446Z,32.18
2018-08-07T10:50:27.890Z,32.25
2018-08-07T10:52:58.789Z,32.31
2018-08-07T10:55:29.012Z,32.38
2018-08-07T10:58:00.266Z,32.44
2018-08-07T11:00:32.109Z,32.52
2018-08-07T11:03:02.662Z,32.59
2018-08-07T11:05:32.807Z,32.66
2018-08-07T11:08:03.250Z,32.69
2018-08-07T11:10:33.439Z,32.72
2018-08-07T11:13:03.690Z,32.76
2018-08-07T11:15:35.034Z,32.80
2018-08-07T11:18:05.789Z,32.85
2018-08-07T11:20:35.923Z,32.90
2018-08-07T11:23:06.793Z,32.99
2018-08-07T11:25:36.983Z,33.07
2018-08-07T11:28:07.192Z,33.16
2018-08-07T11:30:37.335Z,33.22
2018-08-07T11:33:07.840Z,33.29
2018-08-07T11:35:38.369Z,33.35
2018-08-07T11:38:08.516Z,33.42
2018-08-07T11:40:38.863Z,33.48
2018-08-07T11:43:09.432Z,33.55
2018-08-07T11:45:40.014Z,33.64
2018-08-07T11:48:10.510Z,33.70
2018-08-07T11:50:41.127Z,33.76
2018-08-07T11:53:11.663Z,33.81
2018-08-07T11:55:42.141Z,33.86
2018-08-07T11:58:12.438Z,33.90
2018-08-07T12:00:42.968Z,33.94
2018-08-07T12:03:13.282Z,33.95
2018-08-07T12:05:43.518Z,33.99
2018-08-07T12:08:13.933Z,34.03
2018-08-07T12:10:44.155Z,34.07
2018-08-07T12:13:14.326Z,34.07
2018-08-07T12:15:44.690Z,34.08
2018-08-07T12:18:14.963Z,34.11
2018-08-07T12:20:46.102Z,34.10
2018-08-07T12:23:17.017Z,34.10
2018-08-07T12:25:47.250Z,34.10
2018-08-07T12:28:17.264Z,34.11
2018-08-07T12:30:47.507Z,34.14
2018-08-07T12:33:18.247Z,34.17
2018-08-07T12:35:49.143Z,34.19
2018-08-07T12:38:19.784Z,34.21
2018-08-07T12:40:49.975Z,34.23
2018-08-07T12:43:20.619Z,34.26
2018-08-07T12:45:51.502Z,34.29
2018-08-07T12:48:21.652Z,34.29
2018-08-07T12:50:52.072Z,34.32
2018-08-07T12:53:22.315Z,34.33
2018-08-07T12:55:52.754Z,34.29
2018-08-07T12:58:22.979Z,34.25
2018-08-07T13:00:53.634Z,34.17
2018-08-07T13:03:23.775Z,34.10
2018-08-07T13:05:54.028Z,34.04
2018-08-07T13:08:24.514Z,33.99
2018-08-07T13:10:55.356Z,33.92
2018-08-07T13:13:25.551Z,33.85
2018-08-07T13:15:56.309Z,33.79
2018-08-07T13:18:26.614Z,33.71
2018-08-07T13:20:56.763Z,33.64
2018-08-07T13:23:27.098Z,33.55
2018-08-07T13:25:57.503Z,33.48
2018-08-07T13:28:28.476Z,33.40
2018-08-07T13:30:58.815Z,33.34
2018-08-07T13:33:29.008Z,33.28
2018-08-07T13:35:59.233Z,33.21
2018-08-07T13:38:30.562Z,33.15
2018-08-07T13:41:00.908Z,33.12
2018-08-07T13:43:31.402Z,33.10
2018-08-07T13:46:01.619Z,33.05
2018-08-07T13:48:32.231Z,32.99
2018-08-07T13:51:02.387Z,32.93
2018-08-07T13:53:32.537Z,32.89
2018-08-07T13:56:03.073Z,32.85
2018-08-07T13:58:34.740Z,32.81
2018-08-07T14:01:04.898Z,32.78
2018-08-07T14:03:35.166Z,32.74
2018-08-07T14:06:05.863Z,32.69
2018-08-07T14:08:36.026Z,32.65
2018-08-07T14:11:06.779Z,32.61
2018-08-07T14:13:37.342Z,32.58
2018-08-07T14:16:07.681Z,32.52
2018-08-07T14:18:37.969Z,32.48
2018-08-07T14:21:08.434Z,32.46
2018-08-07T14:23:38.914Z,32.43
2018-08-07T14:26:09.171Z,32.41
2018-08-07T14:28:39.459Z,32.37
2018-08-07T14:31:10.398Z,32.33
2018-08-07T14:33:40.751Z,32.29
2018-08-07T14:36:11.200Z,32.24
2018-08-07T14:38:41.626Z,32.23
2018-08-07T14:41:12.071Z,32.20
2018-08-07T14:43:42.604Z,32.17
2018-08-07T14:46:12.722Z,32.16
2018-08-07T14:48:43.278Z,32.15
2018-08-07T14:51:14.789Z,32.13
2018-08-07T14:53:45.008Z,32.09
2018-08-07T14:56:15.116Z,32.06
2018-08-07T14:58:45.688Z,32.01
2018-08-07T15:01:15.973Z,31.98
2018-08-07T15:03:46.823Z,31.95
2018-08-07T15:06:17.197Z,31.92
2018-08-07T15:08:47.483Z,31.91
2018-08-07T15:11:17.589Z,31.89
2018-08-07T15:13:47.946Z,31.88
2018-08-07T15:16:18.027Z,31.86
2018-08-07T15:18:48.278Z,31.85
2018-08-07T15:21:18.412Z,31.84
2018-08-07T15:23:49.055Z,31.84
2018-08-07T15:26:19.884Z,31.82
2018-08-07T15:28:49.933Z,31.81
2018-08-07T15:31:20.374Z,31.78
2018-08-07T15:33:50.683Z,31.77
2018-08-07T15:36:20.848Z,31.75
2018-08-07T15:38:51.374Z,31.74
2018-08-07T15:41:21.807Z,31.72
2018-08-07T15:43:51.846Z,31.71
2018-08-07T15:46:22.139Z,31.68
2018-08-07T15:48:52.580Z,31.64
2018-08-07T15:51:22.690Z,31.62
2018-08-07T15:53:52.861Z,31.59
2018-08-07T15:56:23.031Z,31.55
2018-08-07T15:58:53.285Z,31.52
2018-08-07T16:01:23.447Z,31.47
2018-08-07T16:03:53.897Z,31.39
2018-08-07T16:06:24.187Z,31.33
2018-08-07T16:08:54.652Z,31.24
2018-08-07T16:11:24.931Z,31.18
2018-08-07T16:13:54.998Z,31.13
2018-08-07T16:16:25.182Z,31.07
2018-08-07T16:18:55.287Z,31.00
2018-08-07T16:21:25.666Z,30.93
2018-08-07T16:23:56.007Z,30.90
2018-08-07T16:26:26.071Z,30.86
2018-08-07T16:28:56.769Z,30.82
2018-08-07T16:31:27.236Z,30.78
2018-08-07T16:33:57.622Z,30.75
2018-08-07T16:36:28.001Z,30.73
2018-08-07T16:38:58.710Z,30.70
2018-08-07T16:41:28.889Z,30.68
2018-08-07T16:43:59.496Z,30.64
2018-08-07T16:46:30.086Z,30.60
2018-08-07T16:49:00.662Z,30.61
2018-08-07T16:51:31.533Z,30.60
2018-08-07T16:54:02.079Z,30.58
2018-08-07T16:56:32.658Z,30.55
2018-08-07T16:59:03.113Z,30.51
2018-08-07T17:01:33.220Z,30.47
2018-08-07T17:04:03.752Z,30.40
2018-08-07T17:06:34.467Z,30.32
2018-08-07T17:09:06.871Z,30.27
2018-08-07T17:11:37.094Z,30.18
2018-08-07T17:14:07.322Z,30.07
2018-08-07T17:16:37.665Z,29.98
2018-08-07T17:19:08.198Z,29.90
2018-08-07T17:21:38.550Z,29.79
2018-08-07T17:24:09.176Z,29.69
2018-08-07T17:26:39.864Z,29.62
2018-08-07T17:29:10.106Z,29.58
2018-08-07T17:31:40.419Z,29.52
2018-08-07T17:34:10.644Z,29.49
2018-08-07T17:36:40.863Z,29.45
2018-08-07T17:39:11.682Z,29.42
2018-08-07T17:41:41.942Z,29.37
2018-08-07T17:44:12.350Z,29.32
2018-08-07T17:46:42.444Z,29.27
2018-08-07T18:02:12.902Z,28.75
2018-08-07T18:05:13.074Z,28.79
2018-08-07T18:07:44.050Z,28.81
2018-08-07T18:10:13.652Z,28.82
2018-08-07T18:12:42.821Z,28.85
2018-08-07T18:15:13.954Z,28.87
2018-08-07T18:17:43.856Z,28.86
2018-08-07T18:20:17.219Z,28.86
2018-08-07T18:22:46.947Z,28.86
2018-08-07T18:25:16.023Z,28.85
2018-08-07T18:27:45.101Z,28.84
2018-08-07T18:30:17.107Z,28.81
2018-08-07T18:32:46.574Z,28.80
2018-08-07T18:35:18.069Z,28.79
2018-08-07T18:37:47.554Z,28.79
2018-08-07T18:40:16.671Z,28.77
2018-08-07T18:42:45.835Z,28.75
2018-08-07T18:45:15.259Z,28.73
2018-08-07T18:47:45.478Z,28.69
2018-08-07T18:50:16.385Z,28.67
2018-08-07T18:52:45.818Z,28.64
2018-08-07T18:55:15.639Z,28.61
2018-08-07T18:57:46.710Z,28.57
2018-08-07T19:00:17.339Z,28.53
2018-08-07T19:02:46.585Z,28.50
2018-08-07T19:05:17.246Z,28.45
2018-08-07T19:07:46.444Z,28.38
2018-08-07T19:10:15.774Z,28.33
2018-08-07T19:12:45.599Z,28.27
2018-08-07T19:15:15.835Z,28.21
2018-08-07T19:17:45.565Z,28.16
2018-08-07T19:20:16.457Z,28.12
2018-08-07T19:22:45.478Z,28.06
2018-08-07T19:25:14.879Z,28.00
2018-08-07T19:27:44.303Z,27.95
2018-08-07T19:30:15.194Z,27.86
2018-08-07T19:32:44.242Z,27.80
2018-08-07T19:35:14.822Z,27.72
2018-08-07T19:37:43.861Z,27.65
2018-08-07T19:40:14.952Z,27.60
2018-08-07T19:42:44.724Z,27.53
2018-08-07T19:45:14.142Z,27.46
2018-08-07T19:47:43.868Z,27.39
2018-08-07T19:50:14.312Z,27.32
2018-08-07T19:52:43.732Z,27.26
2018-08-07T19:55:15.182Z,27.19
2018-08-07T19:57:44.402Z,27.12
2018-08-07T20:00:19.256Z,27.07
2018-08-07T20:02:49.046Z,27.04
2018-08-07T20:05:18.209Z,27.03
2018-08-07T20:07:47.499Z,27.02
2018-08-07T20:10:17.648Z,27.00
2018-08-07T20:12:47.103Z,26.99
2018-08-07T20:15:18.266Z,26.96
2018-08-07T20:17:47.973Z,26.95
2018-08-07T20:20:17.672Z,26.94
2018-08-07T20:22:47.230Z,26.93
2018-08-07T20:25:16.658Z,26.92
2018-08-07T20:27:45.740Z,26.91
2018-08-07T20:30:16.289Z,26.90
2018-08-07T20:32:46.229Z,26.90
2018-08-07T20:35:15.380Z,26.89
2018-08-07T20:37:44.703Z,26.87
2018-08-07T20:40:17.152Z,26.87
2018-08-07T20:42:46.332Z,26.86
2018-08-07T20:45:15.992Z,26.84
2018-08-07T20:47:45.382Z,26.83
2018-08-07T20:50:18.375Z,26.81
2018-08-07T20:52:47.913Z,26.78
2018-08-07T20:55:17.456Z,26.76
2018-08-07T20:57:46.655Z,26.73
2018-08-07T21:00:22.512Z,26.71
2018-08-07T21:02:51.992Z,26.67
2018-08-07T21:05:21.155Z,26.64
2018-08-07T21:07:51.107Z,26.61
2018-08-07T21:10:21.665Z,26.58
2018-08-07T21:12:50.678Z,26.56
2018-08-07T21:15:20.475Z,26.54
2018-08-07T21:17:49.855Z,26.52
2018-08-07T21:20:20.125Z,26.51
2018-08-07T21:22:49.435Z,26.48
2018-08-07T21:25:21.052Z,26.47
2018-08-07T21:27:51.964Z,26.45
2018-08-07T21:30:23.826Z,26.44
2018-08-07T21:32:52.773Z,26.41
2018-08-07T21:35:23.194Z,26.39
2018-08-07T21:37:52.386Z,26.37
2018-08-07T21:40:22.529Z,26.38
2018-08-07T21:42:52.813Z,26.39
2018-08-07T21:45:22.744Z,26.36
2018-08-07T21:47:51.886Z,26.35
2018-08-07T21:50:22.509Z,26.36
2018-08-07T21:52:51.677Z,26.36
2018-08-07T21:55:21.503Z,26.36
2018-08-07T21:57:50.733Z,26.33
2018-08-07T22:00:41.887Z,26.30
2018-08-07T22:03:11.979Z,26.28
2018-08-07T22:05:41.134Z,26.26
2018-08-07T22:08:11.318Z,26.22
2018-08-07T22:10:40.734Z,26.18
2018-08-07T22:13:10.078Z,26.17
2018-08-07T22:15:39.360Z,26.15
2018-08-07T22:18:09.995Z,26.12
2018-08-07T22:20:39.354Z,26.10
2018-08-07T22:23:08.421Z,26.11
2018-08-07T22:25:37.747Z,26.11
2018-08-07T22:28:07.198Z,26.09
2018-08-07T22:30:36.739Z,26.07
2018-08-07T22:33:06.651Z,26.06
2018-08-07T22:35:35.592Z,26.06
2018-08-07T22:38:04.769Z,26.04
2018-08-07T22:40:34.530Z,26.05
2018-08-07T22:43:03.641Z,26.06
2018-08-07T22:45:33.582Z,26.07
2018-08-07T22:48:02.932Z,26.07
2018-08-07T22:50:31.842Z,26.09
2018-08-07T22:53:00.741Z,26.10
2018-08-07T22:55:30.694Z,26.11
2018-08-07T22:57:59.719Z,26.13
2018-08-07T23:00:29.131Z,26.13
2018-08-07T23:02:58.726Z,26.14
2018-08-07T23:05:30.419Z,26.15
2018-08-07T23:07:59.852Z,26.16
2018-08-07T23:10:29.234Z,26.16
2018-08-07T23:12:58.290Z,26.18
2018-08-07T23:15:27.352Z,26.18
2018-08-07T23:17:56.462Z,26.15
2018-08-07T23:20:27.139Z,26.15
2018-08-07T23:22:57.705Z,26.15
2018-08-07T23:25:26.766Z,26.15
2018-08-07T23:27:55.710Z,26.15
2018-08-07T23:30:24.823Z,26.15
2018-08-07T23:32:54.958Z,26.11
2018-08-07T23:35:24.174Z,26.13
2018-08-07T23:37:53.072Z,26.14
2018-08-07T23:40:23.383Z,26.14
2018-08-07T23:42:52.638Z,26.15
2018-08-07T23:45:21.634Z,26.14
2018-08-07T23:47:50.872Z,26.13
2018-08-07T23:50:20.230Z,26.12
2018-08-07T23:52:49.593Z,26.11
2018-08-07T23:55:18.531Z,26.11
2018-08-07T23:57:47.577Z,26.11
